sensor_id;sensor_type;location;lat;lon;timestamp;P1;durP1;ratioP1;P2;durP2;ratioP2
46116;SDS011;32591;48.102;11.772;2024-01-07T00:01:45;11.88;;;6.35;;
46116;SDS011;32591;48.102;11.772;2024-01-07T00:04:15;9.13;;;5.40;;
46116;SDS011;32591;48.102;11.772;2024-01-07T00:06:42;11.10;;;6.68;;
46116;SDS011;32591;48.102;11.772;2024-01-07T00:09:10;12.30;;;7.20;;
46116;SDS011;32591;48.102;11.772;2024-01-07T00:11:38;12.13;;;7.43;;
46116;SDS011;32591;48.102;11.772;2024-01-07T00:14:05;13.38;;;6.70;;
46116;SDS011;32591;48.102;11.772;2024-01-07T00:16:32;13.20;;;6.63;;
46116;SDS011;32591;48.102;11.772;2024-01-07T00:19:00;11.05;;;6.30;;
46116;SDS011;32591;48.102;11.772;2024-01-07T00:23:56;11.15;;;6.82;;
46116;SDS011;32591;48.102;11.772;2024-01-07T00:28:50;12.68;;;6.55;;
46116;SDS011;32591;48.102;11.772;2024-01-07T00:31:16;13.57;;;7.45;;
46116;SDS011;32591;48.102;11.772;2024-01-07T00:36:11;12.80;;;6.70;;
46116;SDS011;32591;48.102;11.772;2024-01-07T00:43:32;10.45;;;6.43;;
46116;SDS011;32591;48.102;11.772;2024-01-07T00:45:59;15.15;;;7.10;;
46116;SDS011;32591;48.102;11.772;2024-01-07T00:50:53;11.93;;;6.72;;
46116;SDS011;32591;48.102;11.772;2024-01-07T00:53:21;13.95;;;6.82;;
46116;SDS011;32591;48.102;11.772;2024-01-07T01:00:43;10.60;;;6.15;;
46116;SDS011;32591;48.102;11.772;2024-01-07T01:05:37;13.15;;;6.95;;
46116;SDS011;32591;48.102;11.772;2024-01-07T01:13:00;9.60;;;5.50;;
46116;SDS011;32591;48.102;11.772;2024-01-07T01:15:28;9.55;;;5.78;;
46116;SDS011;32591;48.102;11.772;2024-01-07T01:20:21;10.18;;;5.50;;
46116;SDS011;32591;48.102;11.772;2024-01-07T01:25:15;9.77;;;5.65;;
46116;SDS011;32591;48.102;11.772;2024-01-07T01:30:11;9.43;;;5.72;;
46116;SDS011;32591;48.102;11.772;2024-01-07T01:32:38;11.00;;;5.55;;
46116;SDS011;32591;48.102;11.772;2024-01-07T01:35:08;11.30;;;6.32;;
46116;SDS011;32591;48.102;11.772;2024-01-07T01:37:35;11.40;;;6.10;;
46116;SDS011;32591;48.102;11.772;2024-01-07T01:42:30;9.70;;;5.75;;
46116;SDS011;32591;48.102;11.772;2024-01-07T01:47:27;10.35;;;5.13;;
46116;SDS011;32591;48.102;11.772;2024-01-07T01:49:55;8.85;;;5.90;;
46116;SDS011;32591;48.102;11.772;2024-01-07T01:52:22;10.40;;;6.05;;
46116;SDS011;32591;48.102;11.772;2024-01-07T01:54:49;11.93;;;6.18;;
46116;SDS011;32591;48.102;11.772;2024-01-07T01:57:17;9.40;;;5.30;;
46116;SDS011;32591;48.102;11.772;2024-01-07T01:59:48;8.35;;;5.28;;
46116;SDS011;32591;48.102;11.772;2024-01-07T02:02:15;11.18;;;6.28;;
46116;SDS011;32591;48.102;11.772;2024-01-07T02:04:44;8.13;;;5.07;;
46116;SDS011;32591;48.102;11.772;2024-01-07T02:07:11;10.02;;;5.90;;
46116;SDS011;32591;48.102;11.772;2024-01-07T02:09:39;8.95;;;5.47;;
46116;SDS011;32591;48.102;11.772;2024-01-07T02:12:06;8.98;;;5.63;;
46116;SDS011;32591;48.102;11.772;2024-01-07T02:14:36;9.43;;;5.90;;
46116;SDS011;32591;48.102;11.772;2024-01-07T02:17:04;10.63;;;6.00;;
46116;SDS011;32591;48.102;11.772;2024-01-07T02:19:31;9.25;;;5.70;;
46116;SDS011;32591;48.102;11.772;2024-01-07T02:22:00;10.05;;;5.55;;
46116;SDS011;32591;48.102;11.772;2024-01-07T02:24:28;8.55;;;5.22;;
46116;SDS011;32591;48.102;11.772;2024-01-07T02:26:57;9.10;;;5.40;;
46116;SDS011;32591;48.102;11.772;2024-01-07T02:29:27;9.60;;;5.68;;
46116;SDS011;32591;48.102;11.772;2024-01-07T02:34:21;8.25;;;5.60;;
46116;SDS011;32591;48.102;11.772;2024-01-07T02:39:14;9.57;;;5.28;;
46116;SDS011;32591;48.102;11.772;2024-01-07T02:41:44;9.25;;;5.40;;
46116;SDS011;32591;48.102;11.772;2024-01-07T02:44:11;8.07;;;4.65;;
46116;SDS011;32591;48.102;11.772;2024-01-07T02:46:38;8.30;;;5.22;;
46116;SDS011;32591;48.102;11.772;2024-01-07T02:51:32;8.00;;;4.93;;
46116;SDS011;32591;48.102;11.772;2024-01-07T02:53:59;7.97;;;4.68;;
46116;SDS011;32591;48.102;11.772;2024-01-07T02:56:26;8.82;;;5.00;;
46116;SDS011;32591;48.102;11.772;2024-01-07T03:01:22;7.15;;;4.18;;
46116;SDS011;32591;48.102;11.772;2024-01-07T03:03:49;10.80;;;5.57;;
46116;SDS011;32591;48.102;11.772;2024-01-07T03:06:16;8.23;;;4.93;;
46116;SDS011;32591;48.102;11.772;2024-01-07T03:08:42;7.87;;;4.80;;
46116;SDS011;32591;48.102;11.772;2024-01-07T03:13:36;7.00;;;4.43;;
46116;SDS011;32591;48.102;11.772;2024-01-07T03:18:32;7.70;;;4.45;;
46116;SDS011;32591;48.102;11.772;2024-01-07T03:23:25;7.35;;;4.57;;
46116;SDS011;32591;48.102;11.772;2024-01-07T03:28:19;7.30;;;3.88;;
46116;SDS011;32591;48.102;11.772;2024-01-07T03:33:14;7.25;;;4.15;;
46116;SDS011;32591;48.102;11.772;2024-01-07T03:35:41;8.65;;;5.03;;
46116;SDS011;32591;48.102;11.772;2024-01-07T03:40:36;9.07;;;5.40;;
46116;SDS011;32591;48.102;11.772;2024-01-07T03:45:30;9.38;;;4.85;;
46116;SDS011;32591;48.102;11.772;2024-01-07T03:47:57;7.07;;;4.20;;
46116;SDS011;32591;48.102;11.772;2024-01-07T03:55:19;7.88;;;4.30;;
46116;SDS011;32591;48.102;11.772;2024-01-07T04:00:13;5.57;;;4.15;;
46116;SDS011;32591;48.102;11.772;2024-01-07T04:02:41;7.22;;;4.25;;
46116;SDS011;32591;48.102;11.772;2024-01-07T04:05:09;7.90;;;4.88;;
46116;SDS011;32591;48.102;11.772;2024-01-07T04:07:38;8.23;;;4.88;;
46116;SDS011;32591;48.102;11.772;2024-01-07T04:10:05;8.13;;;4.97;;
46116;SDS011;32591;48.102;11.772;2024-01-07T04:12:32;6.65;;;4.30;;
46116;SDS011;32591;48.102;11.772;2024-01-07T04:17:26;8.27;;;4.40;;
46116;SDS011;32591;48.102;11.772;2024-01-07T04:22:21;6.97;;;4.45;;
46116;SDS011;32591;48.102;11.772;2024-01-07T04:24:49;6.20;;;4.20;;
46116;SDS011;32591;48.102;11.772;2024-01-07T04:27:16;7.18;;;4.32;;
46116;SDS011;32591;48.102;11.772;2024-01-07T04:32:10;9.63;;;4.17;;
46116;SDS011;32591;48.102;11.772;2024-01-07T04:37:04;5.88;;;3.38;;
46116;SDS011;32591;48.102;11.772;2024-01-07T04:41:59;5.82;;;3.53;;
46116;SDS011;32591;48.102;11.772;2024-01-07T04:44:26;6.50;;;4.25;;
46116;SDS011;32591;48.102;11.772;2024-01-07T04:49:20;6.68;;;4.20;;
46116;SDS011;32591;48.102;11.772;2024-01-07T04:51:47;5.28;;;3.33;;
46116;SDS011;32591;48.102;11.772;2024-01-07T04:56:40;6.13;;;3.88;;
46116;SDS011;32591;48.102;11.772;2024-01-07T05:01:36;6.95;;;3.38;;
46116;SDS011;32591;48.102;11.772;2024-01-07T05:06:30;6.57;;;3.95;;
46116;SDS011;32591;48.102;11.772;2024-01-07T05:11:24;6.47;;;3.55;;
46116;SDS011;32591;48.102;11.772;2024-01-07T05:13:51;6.68;;;3.97;;
46116;SDS011;32591;48.102;11.772;2024-01-07T05:18:46;7.30;;;4.38;;
46116;SDS011;32591;48.102;11.772;2024-01-07T05:21:14;7.65;;;3.83;;
46116;SDS011;32591;48.102;11.772;2024-01-07T05:23:41;7.65;;;4.75;;
46116;SDS011;32591;48.102;11.772;2024-01-07T05:26:08;6.53;;;3.85;;
46116;SDS011;32591;48.102;11.772;2024-01-07T05:28:36;7.03;;;4.15;;
46116;SDS011;32591;48.102;11.772;2024-01-07T05:31:03;8.13;;;4.30;;
46116;SDS011;32591;48.102;11.772;2024-01-07T05:33:31;8.07;;;4.35;;
46116;SDS011;32591;48.102;11.772;2024-01-07T05:35:58;8.25;;;4.78;;
46116;SDS011;32591;48.102;11.772;2024-01-07T05:38:25;8.00;;;4.43;;
46116;SDS011;32591;48.102;11.772;2024-01-07T05:43:19;8.05;;;4.57;;
46116;SDS011;32591;48.102;11.772;2024-01-07T05:48:13;7.70;;;4.25;;
46116;SDS011;32591;48.102;11.772;2024-01-07T05:50:42;8.02;;;4.05;;
46116;SDS011;32591;48.102;11.772;2024-01-07T05:53:09;7.00;;;4.22;;
46116;SDS011;32591;48.102;11.772;2024-01-07T05:58:03;7.90;;;4.38;;
46116;SDS011;32591;48.102;11.772;2024-01-07T06:00:30;6.35;;;4.35;;
46116;SDS011;32591;48.102;11.772;2024-01-07T06:02:57;5.93;;;3.28;;
46116;SDS011;32591;48.102;11.772;2024-01-07T06:07:52;8.43;;;4.40;;
46116;SDS011;32591;48.102;11.772;2024-01-07T06:10:19;6.15;;;4.10;;
46116;SDS011;32591;48.102;11.772;2024-01-07T06:15:13;6.25;;;3.85;;
46116;SDS011;32591;48.102;11.772;2024-01-07T06:17:40;9.00;;;4.70;;
46116;SDS011;32591;48.102;11.772;2024-01-07T06:22:35;10.77;;;5.28;;
46116;SDS011;32591;48.102;11.772;2024-01-07T06:27:31;8.52;;;4.82;;
46116;SDS011;32591;48.102;11.772;2024-01-07T06:32:25;9.20;;;4.75;;
46116;SDS011;32591;48.102;11.772;2024-01-07T06:37:18;8.52;;;4.78;;
46116;SDS011;32591;48.102;11.772;2024-01-07T06:42:13;8.90;;;4.93;;
46116;SDS011;32591;48.102;11.772;2024-01-07T06:44:41;8.18;;;4.60;;
46116;SDS011;32591;48.102;11.772;2024-01-07T06:47:08;9.30;;;5.28;;
46116;SDS011;32591;48.102;11.772;2024-01-07T06:49:35;9.32;;;4.95;;
46116;SDS011;32591;48.102;11.772;2024-01-07T06:52:04;7.43;;;4.43;;
46116;SDS011;32591;48.102;11.772;2024-01-07T06:54:31;8.65;;;5.25;;
46116;SDS011;32591;48.102;11.772;2024-01-07T06:59:26;7.83;;;4.63;;
46116;SDS011;32591;48.102;11.772;2024-01-07T07:01:53;6.65;;;4.30;;
46116;SDS011;32591;48.102;11.772;2024-01-07T07:04:21;8.80;;;4.90;;
46116;SDS011;32591;48.102;11.772;2024-01-07T07:09:15;6.82;;;4.00;;
46116;SDS011;32591;48.102;11.772;2024-01-07T07:14:09;6.40;;;4.15;;
46116;SDS011;32591;48.102;11.772;2024-01-07T07:21:31;7.95;;;4.13;;
46116;SDS011;32591;48.102;11.772;2024-01-07T07:26:25;9.27;;;4.40;;
46116;SDS011;32591;48.102;11.772;2024-01-07T07:28:52;8.45;;;4.30;;
46116;SDS011;32591;48.102;11.772;2024-01-07T07:33:47;9.48;;;4.05;;
46116;SDS011;32591;48.102;11.772;2024-01-07T07:36:14;7.28;;;4.35;;
46116;SDS011;32591;48.102;11.772;2024-01-07T07:38:41;8.77;;;4.60;;
46116;SDS011;32591;48.102;11.772;2024-01-07T07:43:35;9.07;;;5.00;;
46116;SDS011;32591;48.102;11.772;2024-01-07T07:48:29;6.38;;;4.53;;
46116;SDS011;32591;48.102;11.772;2024-01-07T07:50:58;8.63;;;4.43;;
46116;SDS011;32591;48.102;11.772;2024-01-07T07:53:25;9.65;;;4.97;;
46116;SDS011;32591;48.102;11.772;2024-01-07T07:58:19;8.02;;;4.68;;
46116;SDS011;32591;48.102;11.772;2024-01-07T08:00:46;7.55;;;4.75;;
46116;SDS011;32591;48.102;11.772;2024-01-07T08:03:13;10.15;;;4.75;;
46116;SDS011;32591;48.102;11.772;2024-01-07T08:05:40;10.52;;;4.90;;
46116;SDS011;32591;48.102;11.772;2024-01-07T08:08:09;8.93;;;4.30;;
46116;SDS011;32591;48.102;11.772;2024-01-07T08:10:37;8.73;;;4.30;;
46116;SDS011;32591;48.102;11.772;2024-01-07T08:15:32;7.90;;;4.75;;
46116;SDS011;32591;48.102;11.772;2024-01-07T08:17:59;8.07;;;4.13;;
46116;SDS011;32591;48.102;11.772;2024-01-07T08:20:27;8.73;;;4.10;;
46116;SDS011;32591;48.102;11.772;2024-01-07T08:22:54;8.02;;;4.18;;
46116;SDS011;32591;48.102;11.772;2024-01-07T08:25:22;6.82;;;4.43;;
46116;SDS011;32591;48.102;11.772;2024-01-07T08:27:50;8.73;;;4.47;;
46116;SDS011;32591;48.102;11.772;2024-01-07T08:30:17;10.68;;;4.25;;
46116;SDS011;32591;48.102;11.772;2024-01-07T08:32:44;9.13;;;4.50;;
46116;SDS011;32591;48.102;11.772;2024-01-07T08:35:11;8.73;;;4.85;;
46116;SDS011;32591;48.102;11.772;2024-01-07T08:37:38;12.13;;;5.38;;
46116;SDS011;32591;48.102;11.772;2024-01-07T08:40:06;9.75;;;4.82;;
46116;SDS011;32591;48.102;11.772;2024-01-07T08:42:36;8.73;;;4.57;;
46116;SDS011;32591;48.102;11.772;2024-01-07T08:45:03;9.30;;;5.80;;
46116;SDS011;32591;48.102;11.772;2024-01-07T08:47:32;10.65;;;5.00;;
46116;SDS011;32591;48.102;11.772;2024-01-07T08:50:01;10.13;;;5.38;;
46116;SDS011;32591;48.102;11.772;2024-01-07T08:52:28;11.13;;;5.53;;
46116;SDS011;32591;48.102;11.772;2024-01-07T08:57:22;12.88;;;4.65;;
46116;SDS011;32591;48.102;11.772;2024-01-07T08:59:50;9.05;;;5.43;;
46116;SDS011;32591;48.102;11.772;2024-01-07T09:02:17;8.13;;;5.15;;
46116;SDS011;32591;48.102;11.772;2024-01-07T09:04:45;10.32;;;5.25;;
46116;SDS011;32591;48.102;11.772;2024-01-07T09:09:42;9.38;;;4.43;;
46116;SDS011;32591;48.102;11.772;2024-01-07T09:12:09;12.18;;;6.43;;
46116;SDS011;32591;48.102;11.772;2024-01-07T09:14:38;9.15;;;4.78;;
46116;SDS011;32591;48.102;11.772;2024-01-07T09:17:11;11.35;;;5.72;;
46116;SDS011;32591;48.102;11.772;2024-01-07T09:19:38;13.95;;;6.40;;
46116;SDS011;32591;48.102;11.772;2024-01-07T09:22:06;13.15;;;6.05;;
46116;SDS011;32591;48.102;11.772;2024-01-07T09:24:33;12.48;;;6.32;;
46116;SDS011;32591;48.102;11.772;2024-01-07T09:27:00;10.35;;;5.72;;
46116;SDS011;32591;48.102;11.772;2024-01-07T09:29:28;10.02;;;5.88;;
46116;SDS011;32591;48.102;11.772;2024-01-07T09:31:55;11.40;;;5.78;;
46116;SDS011;32591;48.102;11.772;2024-01-07T09:34:25;9.35;;;5.15;;
46116;SDS011;32591;48.102;11.772;2024-01-07T09:36:53;10.48;;;4.85;;
46116;SDS011;32591;48.102;11.772;2024-01-07T09:39:21;10.25;;;4.68;;
46116;SDS011;32591;48.102;11.772;2024-01-07T09:41:48;11.95;;;5.88;;
46116;SDS011;32591;48.102;11.772;2024-01-07T09:44:16;13.55;;;6.35;;
46116;SDS011;32591;48.102;11.772;2024-01-07T09:46:44;12.90;;;6.30;;
46116;SDS011;32591;48.102;11.772;2024-01-07T09:49:17;11.77;;;6.15;;
46116;SDS011;32591;48.102;11.772;2024-01-07T09:51:46;10.73;;;6.15;;
46116;SDS011;32591;48.102;11.772;2024-01-07T09:54:16;11.32;;;5.88;;
46116;SDS011;32591;48.102;11.772;2024-01-07T09:56:49;10.35;;;5.38;;
46116;SDS011;32591;48.102;11.772;2024-01-07T09:59:21;10.90;;;5.70;;
46116;SDS011;32591;48.102;11.772;2024-01-07T10:01:50;14.55;;;6.07;;
46116;SDS011;32591;48.102;11.772;2024-01-07T10:04:18;13.55;;;6.45;;
46116;SDS011;32591;48.102;11.772;2024-01-07T10:06:47;14.18;;;6.05;;
46116;SDS011;32591;48.102;11.772;2024-01-07T10:09:15;14.65;;;6.95;;
46116;SDS011;32591;48.102;11.772;2024-01-07T10:11:47;12.57;;;6.07;;
46116;SDS011;32591;48.102;11.772;2024-01-07T10:14:14;10.20;;;5.80;;
46116;SDS011;32591;48.102;11.772;2024-01-07T10:16:41;9.75;;;5.22;;
46116;SDS011;32591;48.102;11.772;2024-01-07T10:19:11;10.00;;;5.53;;
46116;SDS011;32591;48.102;11.772;2024-01-07T10:21:38;11.93;;;6.00;;
46116;SDS011;32591;48.102;11.772;2024-01-07T10:24:10;13.50;;;6.60;;
46116;SDS011;32591;48.102;11.772;2024-01-07T10:26:40;11.93;;;6.15;;
46116;SDS011;32591;48.102;11.772;2024-01-07T10:29:08;15.07;;;6.47;;
46116;SDS011;32591;48.102;11.772;2024-01-07T10:31:37;12.93;;;5.82;;
46116;SDS011;32591;48.102;11.772;2024-01-07T10:34:06;9.48;;;5.57;;
46116;SDS011;32591;48.102;11.772;2024-01-07T10:36:43;11.60;;;5.85;;
46116;SDS011;32591;48.102;11.772;2024-01-07T10:39:15;12.35;;;6.03;;
46116;SDS011;32591;48.102;11.772;2024-01-07T10:41:42;12.13;;;6.13;;
46116;SDS011;32591;48.102;11.772;2024-01-07T10:44:11;11.77;;;5.75;;
46116;SDS011;32591;48.102;11.772;2024-01-07T10:46:38;11.13;;;6.05;;
46116;SDS011;32591;48.102;11.772;2024-01-07T10:49:10;12.70;;;6.43;;
46116;SDS011;32591;48.102;11.772;2024-01-07T10:51:45;9.90;;;6.07;;
46116;SDS011;32591;48.102;11.772;2024-01-07T10:54:18;11.40;;;6.07;;
46116;SDS011;32591;48.102;11.772;2024-01-07T10:56:48;12.52;;;6.40;;
46116;SDS011;32591;48.102;11.772;2024-01-07T10:59:19;10.27;;;5.00;;
46116;SDS011;32591;48.102;11.772;2024-01-07T11:01:48;7.85;;;5.10;;
46116;SDS011;32591;48.102;11.772;2024-01-07T11:06:49;10.32;;;5.72;;
46116;SDS011;32591;48.102;11.772;2024-01-07T11:09:26;12.35;;;5.90;;
46116;SDS011;32591;48.102;11.772;2024-01-07T11:11:59;10.15;;;5.97;;
46116;SDS011;32591;48.102;11.772;2024-01-07T11:14:38;11.25;;;5.28;;
46116;SDS011;32591;48.102;11.772;2024-01-07T11:17:10;10.55;;;5.38;;
46116;SDS011;32591;48.102;11.772;2024-01-07T11:19:38;11.75;;;6.40;;
46116;SDS011;32591;48.102;11.772;2024-01-07T11:22:23;10.32;;;5.10;;
46116;SDS011;32591;48.102;11.772;2024-01-07T11:24:54;9.13;;;5.07;;
46116;SDS011;32591;48.102;11.772;2024-01-07T11:27:22;8.70;;;4.13;;
46116;SDS011;32591;48.102;11.772;2024-01-07T11:29:53;9.35;;;5.18;;
46116;SDS011;32591;48.102;11.772;2024-01-07T11:32:22;14.35;;;7.22;;
46116;SDS011;32591;48.102;11.772;2024-01-07T11:34:51;14.60;;;7.15;;
46116;SDS011;32591;48.102;11.772;2024-01-07T11:37:19;9.75;;;5.20;;
46116;SDS011;32591;48.102;11.772;2024-01-07T11:39:47;6.90;;;4.70;;
46116;SDS011;32591;48.102;11.772;2024-01-07T11:42:18;12.85;;;5.68;;
46116;SDS011;32591;48.102;11.772;2024-01-07T11:44:45;8.30;;;4.70;;
46116;SDS011;32591;48.102;11.772;2024-01-07T11:47:13;7.40;;;4.68;;
46116;SDS011;32591;48.102;11.772;2024-01-07T11:49:41;9.00;;;5.60;;
46116;SDS011;32591;48.102;11.772;2024-01-07T11:54:35;10.13;;;4.43;;
46116;SDS011;32591;48.102;11.772;2024-01-07T11:57:03;7.63;;;4.85;;
46116;SDS011;32591;48.102;11.772;2024-01-07T11:59:32;9.38;;;5.57;;
46116;SDS011;32591;48.102;11.772;2024-01-07T12:02:00;8.55;;;4.47;;
46116;SDS011;32591;48.102;11.772;2024-01-07T12:04:29;11.82;;;5.90;;
46116;SDS011;32591;48.102;11.772;2024-01-07T12:06:56;11.85;;;5.68;;
46116;SDS011;32591;48.102;11.772;2024-01-07T12:09:24;11.98;;;6.28;;
46116;SDS011;32591;48.102;11.772;2024-01-07T12:11:51;10.15;;;5.65;;
46116;SDS011;32591;48.102;11.772;2024-01-07T12:14:19;10.23;;;5.35;;
46116;SDS011;32591;48.102;11.772;2024-01-07T12:16:47;10.52;;;5.88;;
46116;SDS011;32591;48.102;11.772;2024-01-07T12:19:15;10.38;;;5.97;;
46116;SDS011;32591;48.102;11.772;2024-01-07T12:24:09;7.80;;;4.57;;
46116;SDS011;32591;48.102;11.772;2024-01-07T12:29:02;10.35;;;4.80;;
46116;SDS011;32591;48.102;11.772;2024-01-07T12:31:32;11.68;;;6.18;;
46116;SDS011;32591;48.102;11.772;2024-01-07T12:34:02;9.60;;;5.35;;
46116;SDS011;32591;48.102;11.772;2024-01-07T12:36:29;8.77;;;5.45;;
46116;SDS011;32591;48.102;11.772;2024-01-07T12:38:56;10.05;;;5.63;;
46116;SDS011;32591;48.102;11.772;2024-01-07T12:41:24;8.10;;;5.18;;
46116;SDS011;32591;48.102;11.772;2024-01-07T12:43:51;9.07;;;4.82;;
46116;SDS011;32591;48.102;11.772;2024-01-07T12:46:18;10.30;;;5.80;;
46116;SDS011;32591;48.102;11.772;2024-01-07T12:51:13;9.10;;;4.88;;
46116;SDS011;32591;48.102;11.772;2024-01-07T12:53:40;8.38;;;4.90;;
46116;SDS011;32591;48.102;11.772;2024-01-07T12:56:08;13.38;;;5.72;;
46116;SDS011;32591;48.102;11.772;2024-01-07T13:01:02;10.48;;;5.35;;
46116;SDS011;32591;48.102;11.772;2024-01-07T13:03:29;12.55;;;5.68;;
46116;SDS011;32591;48.102;11.772;2024-01-07T13:05:56;11.60;;;5.60;;
46116;SDS011;32591;48.102;11.772;2024-01-07T13:10:52;9.15;;;5.43;;
46116;SDS011;32591;48.102;11.772;2024-01-07T13:13:20;11.05;;;5.82;;
46116;SDS011;32591;48.102;11.772;2024-01-07T13:15:47;10.00;;;5.18;;
46116;SDS011;32591;48.102;11.772;2024-01-07T13:18:16;9.85;;;5.75;;
46116;SDS011;32591;48.102;11.772;2024-01-07T13:20:43;10.82;;;5.63;;
46116;SDS011;32591;48.102;11.772;2024-01-07T13:23:10;12.38;;;5.90;;
46116;SDS011;32591;48.102;11.772;2024-01-07T13:30:35;8.45;;;4.97;;
46116;SDS011;32591;48.102;11.772;2024-01-07T13:33:05;9.55;;;4.95;;
46116;SDS011;32591;48.102;11.772;2024-01-07T13:35:33;7.28;;;4.82;;
46116;SDS011;32591;48.102;11.772;2024-01-07T13:38:00;10.50;;;5.07;;
46116;SDS011;32591;48.102;11.772;2024-01-07T13:40:28;7.47;;;4.75;;
46116;SDS011;32591;48.102;11.772;2024-01-07T13:47:50;10.93;;;5.10;;
46116;SDS011;32591;48.102;11.772;2024-01-07T13:50:17;8.63;;;4.72;;
46116;SDS011;32591;48.102;11.772;2024-01-07T13:52:44;10.73;;;5.75;;
46116;SDS011;32591;48.102;11.772;2024-01-07T13:57:38;9.65;;;5.35;;
46116;SDS011;32591;48.102;11.772;2024-01-07T14:00:08;9.70;;;5.15;;
46116;SDS011;32591;48.102;11.772;2024-01-07T14:02:43;9.43;;;5.25;;
46116;SDS011;32591;48.102;11.772;2024-01-07T14:05:11;10.02;;;5.18;;
46116;SDS011;32591;48.102;11.772;2024-01-07T14:07:38;9.52;;;5.45;;
46116;SDS011;32591;48.102;11.772;2024-01-07T14:10:06;10.45;;;5.93;;
46116;SDS011;32591;48.102;11.772;2024-01-07T14:12:33;10.23;;;5.43;;
46116;SDS011;32591;48.102;11.772;2024-01-07T14:15:01;11.30;;;6.18;;
46116;SDS011;32591;48.102;11.772;2024-01-07T14:17:30;8.35;;;5.00;;
46116;SDS011;32591;48.102;11.772;2024-01-07T14:19:57;9.50;;;5.28;;
46116;SDS011;32591;48.102;11.772;2024-01-07T14:22:24;9.52;;;5.90;;
46116;SDS011;32591;48.102;11.772;2024-01-07T14:24:51;9.30;;;5.30;;
46116;SDS011;32591;48.102;11.772;2024-01-07T14:27:18;8.80;;;5.35;;
46116;SDS011;32591;48.102;11.772;2024-01-07T14:29:46;8.15;;;5.07;;
46116;SDS011;32591;48.102;11.772;2024-01-07T14:32:13;10.98;;;4.70;;
46116;SDS011;32591;48.102;11.772;2024-01-07T14:37:09;9.63;;;4.90;;
46116;SDS011;32591;48.102;11.772;2024-01-07T14:39:36;10.05;;;5.93;;
46116;SDS011;32591;48.102;11.772;2024-01-07T14:42:03;9.27;;;5.45;;
46116;SDS011;32591;48.102;11.772;2024-01-07T14:44:31;9.48;;;6.10;;
46116;SDS011;32591;48.102;11.772;2024-01-07T14:46:58;10.68;;;6.30;;
46116;SDS011;32591;48.102;11.772;2024-01-07T14:49:25;10.60;;;6.07;;
46116;SDS011;32591;48.102;11.772;2024-01-07T14:51:53;10.43;;;6.22;;
46116;SDS011;32591;48.102;11.772;2024-01-07T14:54:20;7.95;;;4.95;;
46116;SDS011;32591;48.102;11.772;2024-01-07T14:56:47;10.77;;;5.72;;
46116;SDS011;32591;48.102;11.772;2024-01-07T14:59:15;9.55;;;5.38;;
46116;SDS011;32591;48.102;11.772;2024-01-07T15:04:09;7.95;;;4.75;;
46116;SDS011;32591;48.102;11.772;2024-01-07T15:06:40;8.38;;;4.72;;
46116;SDS011;32591;48.102;11.772;2024-01-07T15:09:10;9.55;;;5.88;;
46116;SDS011;32591;48.102;11.772;2024-01-07T15:11:38;11.30;;;5.03;;
46116;SDS011;32591;48.102;11.772;2024-01-07T15:14:07;8.70;;;5.50;;
46116;SDS011;32591;48.102;11.772;2024-01-07T15:16:35;9.20;;;5.75;;
46116;SDS011;32591;48.102;11.772;2024-01-07T15:19:02;9.05;;;5.40;;
46116;SDS011;32591;48.102;11.772;2024-01-07T15:21:30;9.05;;;5.72;;
46116;SDS011;32591;48.102;11.772;2024-01-07T15:23:57;10.00;;;5.28;;
46116;SDS011;32591;48.102;11.772;2024-01-07T15:26:25;10.73;;;5.38;;
46116;SDS011;32591;48.102;11.772;2024-01-07T15:28:52;9.77;;;6.20;;
46116;SDS011;32591;48.102;11.772;2024-01-07T15:33:46;11.27;;;6.22;;
46116;SDS011;32591;48.102;11.772;2024-01-07T15:36:13;7.50;;;4.80;;
46116;SDS011;32591;48.102;11.772;2024-01-07T15:41:07;11.43;;;5.90;;
46116;SDS011;32591;48.102;11.772;2024-01-07T15:46:03;11.57;;;6.03;;
46116;SDS011;32591;48.102;11.772;2024-01-07T15:48:30;10.30;;;6.60;;
46116;SDS011;32591;48.102;11.772;2024-01-07T15:50:57;8.48;;;5.65;;
46116;SDS011;32591;48.102;11.772;2024-01-07T15:53:24;9.93;;;5.55;;
46116;SDS011;32591;48.102;11.772;2024-01-07T15:55:58;10.65;;;5.68;;
46116;SDS011;32591;48.102;11.772;2024-01-07T15:58:27;14.93;;;7.25;;
46116;SDS011;32591;48.102;11.772;2024-01-07T16:00:58;17.30;;;7.60;;
46116;SDS011;32591;48.102;11.772;2024-01-07T16:03:27;16.38;;;7.38;;
46116;SDS011;32591;48.102;11.772;2024-01-07T16:08:22;10.77;;;5.82;;
46116;SDS011;32591;48.102;11.772;2024-01-07T16:10:51;12.93;;;7.18;;
46116;SDS011;32591;48.102;11.772;2024-01-07T16:13:19;10.70;;;5.97;;
46116;SDS011;32591;48.102;11.772;2024-01-07T16:18:14;9.20;;;5.50;;
46116;SDS011;32591;48.102;11.772;2024-01-07T16:20:41;9.70;;;6.00;;
46116;SDS011;32591;48.102;11.772;2024-01-07T16:23:08;9.43;;;6.18;;
46116;SDS011;32591;48.102;11.772;2024-01-07T16:28:03;11.95;;;6.45;;
46116;SDS011;32591;48.102;11.772;2024-01-07T16:30:32;12.05;;;6.55;;
46116;SDS011;32591;48.102;11.772;2024-01-07T16:33:00;10.70;;;6.57;;
46116;SDS011;32591;48.102;11.772;2024-01-07T16:37:55;9.52;;;5.07;;
46116;SDS011;32591;48.102;11.772;2024-01-07T16:40:22;11.23;;;6.38;;
46116;SDS011;32591;48.102;11.772;2024-01-07T16:42:49;9.20;;;5.22;;
46116;SDS011;32591;48.102;11.772;2024-01-07T16:47:44;13.07;;;6.45;;
46116;SDS011;32591;48.102;11.772;2024-01-07T16:50:11;11.10;;;6.20;;
46116;SDS011;32591;48.102;11.772;2024-01-07T16:57:34;12.90;;;7.05;;
46116;SDS011;32591;48.102;11.772;2024-01-07T17:00:02;13.57;;;7.43;;
46116;SDS011;32591;48.102;11.772;2024-01-07T17:02:32;15.45;;;8.02;;
46116;SDS011;32591;48.102;11.772;2024-01-07T17:07:27;13.60;;;6.97;;
46116;SDS011;32591;48.102;11.772;2024-01-07T17:09:57;10.30;;;6.40;;
46116;SDS011;32591;48.102;11.772;2024-01-07T17:12:23;9.10;;;5.25;;
46116;SDS011;32591;48.102;11.772;2024-01-07T17:14:50;10.07;;;5.97;;
46116;SDS011;32591;48.102;11.772;2024-01-07T17:17:17;11.82;;;6.13;;
46116;SDS011;32591;48.102;11.772;2024-01-07T17:19:45;9.48;;;5.05;;
46116;SDS011;32591;48.102;11.772;2024-01-07T17:22:13;12.77;;;6.38;;
46116;SDS011;32591;48.102;11.772;2024-01-07T17:24:40;11.77;;;6.22;;
46116;SDS011;32591;48.102;11.772;2024-01-07T17:27:10;13.80;;;7.00;;
46116;SDS011;32591;48.102;11.772;2024-01-07T17:29:37;12.50;;;7.18;;
46116;SDS011;32591;48.102;11.772;2024-01-07T17:36:58;12.65;;;7.38;;
46116;SDS011;32591;48.102;11.772;2024-01-07T17:39:26;13.18;;;6.95;;
46116;SDS011;32591;48.102;11.772;2024-01-07T17:44:21;11.63;;;6.90;;
46116;SDS011;32591;48.102;11.772;2024-01-07T17:46:48;13.60;;;8.00;;
46116;SDS011;32591;48.102;11.772;2024-01-07T17:51:41;18.50;;;10.00;;
46116;SDS011;32591;48.102;11.772;2024-01-07T17:54:09;13.95;;;7.93;;
46116;SDS011;32591;48.102;11.772;2024-01-07T17:56:37;16.90;;;8.68;;
46116;SDS011;32591;48.102;11.772;2024-01-07T18:01:34;12.93;;;8.43;;
46116;SDS011;32591;48.102;11.772;2024-01-07T18:04:02;13.33;;;7.50;;
46116;SDS011;32591;48.102;11.772;2024-01-07T18:06:30;11.82;;;7.38;;
46116;SDS011;32591;48.102;11.772;2024-01-07T18:08:57;12.87;;;7.07;;
46116;SDS011;32591;48.102;11.772;2024-01-07T18:13:50;9.85;;;6.00;;
46116;SDS011;32591;48.102;11.772;2024-01-07T18:18:46;11.50;;;6.05;;
46116;SDS011;32591;48.102;11.772;2024-01-07T18:21:13;10.75;;;6.32;;
46116;SDS011;32591;48.102;11.772;2024-01-07T18:23:41;12.07;;;6.45;;
46116;SDS011;32591;48.102;11.772;2024-01-07T18:26:08;11.57;;;6.70;;
46116;SDS011;32591;48.102;11.772;2024-01-07T18:28:36;10.23;;;6.15;;